sensor_id;sensor_type;location;lat;lon;timestamp;P1;durP1;ratioP1;P2;durP2;ratioP2
8074;SDS011;4080;42.676;23.372;2022-07-23T00:01:29;8.80;;;7.07;;
8074;SDS011;4080;42.676;23.372;2022-07-23T00:03:55;9.40;;;7.17;;
8074;SDS011;4080;42.676;23.372;2022-07-23T00:06:23;11.10;;;7.57;;
8074;SDS011;4080;42.676;23.372;2022-07-23T00:08:50;12.43;;;8.00;;
8074;SDS011;4080;42.676;23.372;2022-07-23T00:11:17;10.63;;;7.50;;
8074;SDS011;4080;42.676;23.372;2022-07-23T00:13:44;12.50;;;8.27;;
8074;SDS011;4080;42.676;23.372;2022-07-23T00:16:13;7.93;;;6.67;;
8074;SDS011;4080;42.676;23.372;2022-07-23T00:18:39;10.13;;;7.00;;
8074;SDS011;4080;42.676;23.372;2022-07-23T00:21:06;8.60;;;6.10;;
8074;SDS011;4080;42.676;23.372;2022-07-23T00:23:33;10.90;;;6.53;;
8074;SDS011;4080;42.676;23.372;2022-07-23T00:26:00;8.23;;;6.17;;
8074;SDS011;4080;42.676;23.372;2022-07-23T00:28:27;8.70;;;6.43;;
8074;SDS011;4080;42.676;23.372;2022-07-23T00:30:54;8.90;;;6.27;;
8074;SDS011;4080;42.676;23.372;2022-07-23T00:33:22;8.00;;;6.37;;
8074;SDS011;4080;42.676;23.372;2022-07-23T00:35:49;8.37;;;6.20;;
8074;SDS011;4080;42.676;23.372;2022-07-23T00:38:15;9.63;;;6.33;;
8074;SDS011;4080;42.676;23.372;2022-07-23T00:40:42;11.23;;;6.30;;
8074;SDS011;4080;42.676;23.372;2022-07-23T00:43:09;7.03;;;6.30;;
8074;SDS011;4080;42.676;23.372;2022-07-23T00:45:36;8.77;;;6.40;;
8074;SDS011;4080;42.676;23.372;2022-07-23T00:48:03;8.23;;;6.73;;
8074;SDS011;4080;42.676;23.372;2022-07-23T00:50:31;7.27;;;6.57;;
8074;SDS011;4080;42.676;23.372;2022-07-23T00:52:58;7.27;;;6.53;;
8074;SDS011;4080;42.676;23.372;2022-07-23T00:55:25;7.87;;;6.97;;
8074;SDS011;4080;42.676;23.372;2022-07-23T00:57:52;8.03;;;6.53;;
8074;SDS011;4080;42.676;23.372;2022-07-23T01:00:21;8.53;;;6.80;;
8074;SDS011;4080;42.676;23.372;2022-07-23T01:02:48;8.23;;;6.23;;
8074;SDS011;4080;42.676;23.372;2022-07-23T01:05:15;8.67;;;7.17;;
8074;SDS011;4080;42.676;23.372;2022-07-23T01:07:48;10.50;;;7.27;;
8074;SDS011;4080;42.676;23.372;2022-07-23T01:10:15;9.77;;;7.37;;
8074;SDS011;4080;42.676;23.372;2022-07-23T01:12:58;7.80;;;7.00;;
8074;SDS011;4080;42.676;23.372;2022-07-23T01:15:25;11.00;;;7.57;;
8074;SDS011;4080;42.676;23.372;2022-07-23T01:17:53;9.33;;;7.43;;
8074;SDS011;4080;42.676;23.372;2022-07-23T01:20:19;9.67;;;7.70;;
8074;SDS011;4080;42.676;23.372;2022-07-23T01:22:48;9.93;;;7.70;;
8074;SDS011;4080;42.676;23.372;2022-07-23T01:25:15;9.17;;;7.40;;
8074;SDS011;4080;42.676;23.372;2022-07-23T01:27:42;10.17;;;6.90;;
8074;SDS011;4080;42.676;23.372;2022-07-23T01:30:10;9.60;;;7.67;;
8074;SDS011;4080;42.676;23.372;2022-07-23T01:32:38;9.57;;;7.20;;
8074;SDS011;4080;42.676;23.372;2022-07-23T01:35:05;7.37;;;6.67;;
8074;SDS011;4080;42.676;23.372;2022-07-23T01:37:33;6.97;;;6.27;;
8074;SDS011;4080;42.676;23.372;2022-07-23T01:40:02;8.93;;;6.83;;
8074;SDS011;4080;42.676;23.372;2022-07-23T01:42:29;10.57;;;6.90;;
8074;SDS011;4080;42.676;23.372;2022-07-23T01:44:56;9.40;;;6.90;;
8074;SDS011;4080;42.676;23.372;2022-07-23T01:47:23;8.53;;;7.10;;
8074;SDS011;4080;42.676;23.372;2022-07-23T01:49:50;7.00;;;6.30;;
8074;SDS011;4080;42.676;23.372;2022-07-23T01:52:17;9.90;;;6.97;;
8074;SDS011;4080;42.676;23.372;2022-07-23T01:54:44;8.40;;;7.57;;
8074;SDS011;4080;42.676;23.372;2022-07-23T01:57:12;8.47;;;6.90;;
8074;SDS011;4080;42.676;23.372;2022-07-23T01:59:39;7.73;;;6.77;;
8074;SDS011;4080;42.676;23.372;2022-07-23T02:02:05;7.70;;;6.83;;
8074;SDS011;4080;42.676;23.372;2022-07-23T02:04:32;9.80;;;6.93;;
8074;SDS011;4080;42.676;23.372;2022-07-23T02:07:01;11.87;;;7.13;;
8074;SDS011;4080;42.676;23.372;2022-07-23T02:09:28;8.10;;;7.30;;
8074;SDS011;4080;42.676;23.372;2022-07-23T02:11:55;8.80;;;7.30;;
8074;SDS011;4080;42.676;23.372;2022-07-23T02:14:24;9.63;;;7.90;;
8074;SDS011;4080;42.676;23.372;2022-07-23T02:16:51;14.60;;;8.70;;
8074;SDS011;4080;42.676;23.372;2022-07-23T02:19:18;8.50;;;7.70;;
8074;SDS011;4080;42.676;23.372;2022-07-23T02:21:44;10.00;;;8.40;;
8074;SDS011;4080;42.676;23.372;2022-07-23T02:24:11;8.73;;;7.50;;
8074;SDS011;4080;42.676;23.372;2022-07-23T02:26:38;10.47;;;7.50;;
8074;SDS011;4080;42.676;23.372;2022-07-23T02:29:05;8.90;;;7.73;;
8074;SDS011;4080;42.676;23.372;2022-07-23T02:31:33;8.60;;;7.23;;
8074;SDS011;4080;42.676;23.372;2022-07-23T02:34:01;13.77;;;7.63;;
8074;SDS011;4080;42.676;23.372;2022-07-23T02:36:28;9.23;;;7.13;;
8074;SDS011;4080;42.676;23.372;2022-07-23T02:38:55;13.63;;;8.90;;
8074;SDS011;4080;42.676;23.372;2022-07-23T02:41:22;14.17;;;7.70;;
8074;SDS011;4080;42.676;23.372;2022-07-23T02:43:49;12.00;;;8.37;;
8074;SDS011;4080;42.676;23.372;2022-07-23T02:46:16;17.80;;;8.10;;
8074;SDS011;4080;42.676;23.372;2022-07-23T02:48:44;12.07;;;8.20;;
8074;SDS011;4080;42.676;23.372;2022-07-23T02:51:10;13.07;;;8.73;;
8074;SDS011;4080;42.676;23.372;2022-07-23T02:53:37;11.63;;;8.20;;
8074;SDS011;4080;42.676;23.372;2022-07-23T02:56:04;17.10;;;8.67;;
8074;SDS011;4080;42.676;23.372;2022-07-23T02:58:31;20.83;;;8.93;;
8074;SDS011;4080;42.676;23.372;2022-07-23T03:00:58;13.03;;;8.23;;
8074;SDS011;4080;42.676;23.372;2022-07-23T03:03:24;11.90;;;8.83;;
8074;SDS011;4080;42.676;23.372;2022-07-23T03:05:53;9.73;;;7.80;;
8074;SDS011;4080;42.676;23.372;2022-07-23T03:08:19;11.43;;;8.50;;
8074;SDS011;4080;42.676;23.372;2022-07-23T03:10:46;13.63;;;9.07;;
8074;SDS011;4080;42.676;23.372;2022-07-23T03:13:13;12.77;;;8.30;;
8074;SDS011;4080;42.676;23.372;2022-07-23T03:15:40;13.57;;;8.63;;
8074;SDS011;4080;42.676;23.372;2022-07-23T03:18:07;13.60;;;8.23;;
8074;SDS011;4080;42.676;23.372;2022-07-23T03:20:33;11.50;;;9.37;;
8074;SDS011;4080;42.676;23.372;2022-07-23T03:23:02;14.73;;;9.30;;
8074;SDS011;4080;42.676;23.372;2022-07-23T03:25:28;15.07;;;9.23;;
8074;SDS011;4080;42.676;23.372;2022-07-23T03:27:55;12.23;;;9.63;;
8074;SDS011;4080;42.676;23.372;2022-07-23T03:30:22;13.53;;;9.43;;
8074;SDS011;4080;42.676;23.372;2022-07-23T03:32:49;11.67;;;10.20;;
8074;SDS011;4080;42.676;23.372;2022-07-23T03:35:15;12.23;;;9.83;;
8074;SDS011;4080;42.676;23.372;2022-07-23T03:37:42;14.07;;;9.20;;
8074;SDS011;4080;42.676;23.372;2022-07-23T03:40:11;16.73;;;9.57;;
8074;SDS011;4080;42.676;23.372;2022-07-23T03:42:38;12.33;;;10.20;;
8074;SDS011;4080;42.676;23.372;2022-07-23T03:45:07;13.67;;;10.20;;
8074;SDS011;4080;42.676;23.372;2022-07-23T03:47:34;17.50;;;10.40;;
8074;SDS011;4080;42.676;23.372;2022-07-23T03:50:01;18.73;;;10.27;;
8074;SDS011;4080;42.676;23.372;2022-07-23T03:52:28;16.87;;;10.40;;
8074;SDS011;4080;42.676;23.372;2022-07-23T03:54:55;14.20;;;10.70;;
8074;SDS011;4080;42.676;23.372;2022-07-23T03:57:35;14.83;;;10.37;;
8074;SDS011;4080;42.676;23.372;2022-07-23T04:00:05;15.60;;;10.07;;
8074;SDS011;4080;42.676;23.372;2022-07-23T04:02:34;10.80;;;9.30;;
8074;SDS011;4080;42.676;23.372;2022-07-23T04:05:01;14.03;;;10.27;;
8074;SDS011;4080;42.676;23.372;2022-07-23T04:07:28;16.80;;;9.70;;
8074;SDS011;4080;42.676;23.372;2022-07-23T04:09:55;12.50;;;9.43;;
8074;SDS011;4080;42.676;23.372;2022-07-23T04:12:22;10.67;;;8.87;;
8074;SDS011;4080;42.676;23.372;2022-07-23T04:14:50;10.40;;;7.67;;
8074;SDS011;4080;42.676;23.372;2022-07-23T04:17:17;10.97;;;8.17;;
8074;SDS011;4080;42.676;23.372;2022-07-23T04:19:43;12.40;;;8.33;;
8074;SDS011;4080;42.676;23.372;2022-07-23T04:22:10;10.63;;;7.73;;
8074;SDS011;4080;42.676;23.372;2022-07-23T04:24:37;12.20;;;8.73;;
8074;SDS011;4080;42.676;23.372;2022-07-23T04:27:04;10.53;;;8.30;;
8074;SDS011;4080;42.676;23.372;2022-07-23T04:29:31;13.03;;;9.13;;
8074;SDS011;4080;42.676;23.372;2022-07-23T04:32:00;12.37;;;9.87;;
8074;SDS011;4080;42.676;23.372;2022-07-23T04:34:26;15.37;;;9.23;;
8074;SDS011;4080;42.676;23.372;2022-07-23T04:36:53;15.77;;;9.43;;
8074;SDS011;4080;42.676;23.372;2022-07-23T04:39:20;11.80;;;9.53;;
8074;SDS011;4080;42.676;23.372;2022-07-23T04:41:47;12.30;;;8.30;;
8074;SDS011;4080;42.676;23.372;2022-07-23T04:44:14;14.33;;;9.60;;
8074;SDS011;4080;42.676;23.372;2022-07-23T04:46:41;12.90;;;10.50;;
8074;SDS011;4080;42.676;23.372;2022-07-23T04:49:09;17.03;;;10.97;;
8074;SDS011;4080;42.676;23.372;2022-07-23T04:51:36;15.40;;;10.43;;
8074;SDS011;4080;42.676;23.372;2022-07-23T04:54:03;14.87;;;10.10;;
8074;SDS011;4080;42.676;23.372;2022-07-23T04:56:30;13.90;;;10.50;;
8074;SDS011;4080;42.676;23.372;2022-07-23T04:58:57;15.47;;;9.63;;
8074;SDS011;4080;42.676;23.372;2022-07-23T05:01:24;15.97;;;9.60;;
8074;SDS011;4080;42.676;23.372;2022-07-23T05:03:51;12.63;;;9.57;;
8074;SDS011;4080;42.676;23.372;2022-07-23T05:06:19;13.23;;;10.00;;
8074;SDS011;4080;42.676;23.372;2022-07-23T05:08:46;11.77;;;9.03;;
8074;SDS011;4080;42.676;23.372;2022-07-23T05:11:12;11.67;;;8.97;;
8074;SDS011;4080;42.676;23.372;2022-07-23T05:13:39;18.87;;;9.30;;
8074;SDS011;4080;42.676;23.372;2022-07-23T05:16:06;12.40;;;9.23;;
8074;SDS011;4080;42.676;23.372;2022-07-23T05:18:37;15.10;;;8.53;;
8074;SDS011;4080;42.676;23.372;2022-07-23T05:21:13;13.13;;;9.50;;
8074;SDS011;4080;42.676;23.372;2022-07-23T05:23:41;10.20;;;8.57;;
8074;SDS011;4080;42.676;23.372;2022-07-23T05:26:08;13.77;;;11.50;;
8074;SDS011;4080;42.676;23.372;2022-07-23T05:28:35;10.67;;;8.13;;
8074;SDS011;4080;42.676;23.372;2022-07-23T05:31:02;9.67;;;8.67;;
8074;SDS011;4080;42.676;23.372;2022-07-23T05:33:29;12.10;;;9.10;;
8074;SDS011;4080;42.676;23.372;2022-07-23T05:35:59;15.47;;;8.40;;
8074;SDS011;4080;42.676;23.372;2022-07-23T05:38:27;13.87;;;8.57;;
8074;SDS011;4080;42.676;23.372;2022-07-23T05:40:56;9.17;;;8.37;;
8074;SDS011;4080;42.676;23.372;2022-07-23T05:43:22;14.50;;;8.60;;
8074;SDS011;4080;42.676;23.372;2022-07-23T05:45:49;10.47;;;8.23;;
8074;SDS011;4080;42.676;23.372;2022-07-23T05:48:16;19.30;;;9.30;;
8074;SDS011;4080;42.676;23.372;2022-07-23T05:50:43;12.27;;;9.60;;
8074;SDS011;4080;42.676;23.372;2022-07-23T05:53:10;12.73;;;8.97;;
8074;SDS011;4080;42.676;23.372;2022-07-23T05:55:37;11.43;;;9.03;;
8074;SDS011;4080;42.676;23.372;2022-07-23T05:58:05;10.90;;;8.87;;
8074;SDS011;4080;42.676;23.372;2022-07-23T06:00:34;12.13;;;8.67;;
8074;SDS011;4080;42.676;23.372;2022-07-23T06:03:01;11.03;;;9.00;;
8074;SDS011;4080;42.676;23.372;2022-07-23T06:05:27;10.50;;;8.47;;
8074;SDS011;4080;42.676;23.372;2022-07-23T06:07:54;11.57;;;8.77;;
8074;SDS011;4080;42.676;23.372;2022-07-23T06:10:21;14.03;;;8.43;;
8074;SDS011;4080;42.676;23.372;2022-07-23T06:12:48;14.63;;;9.03;;
8074;SDS011;4080;42.676;23.372;2022-07-23T06:15:16;11.03;;;9.03;;
8074;SDS011;4080;42.676;23.372;2022-07-23T06:17:43;12.87;;;8.63;;
8074;SDS011;4080;42.676;23.372;2022-07-23T06:20:10;12.43;;;8.80;;
8074;SDS011;4080;42.676;23.372;2022-07-23T06:22:37;14.10;;;9.20;;
8074;SDS011;4080;42.676;23.372;2022-07-23T06:25:05;16.60;;;8.97;;
8074;SDS011;4080;42.676;23.372;2022-07-23T06:27:32;13.47;;;8.90;;
8074;SDS011;4080;42.676;23.372;2022-07-23T06:29:59;15.00;;;9.53;;
8074;SDS011;4080;42.676;23.372;2022-07-23T06:32:27;18.53;;;9.30;;
8074;SDS011;4080;42.676;23.372;2022-07-23T06:34:54;15.43;;;9.50;;
8074;SDS011;4080;42.676;23.372;2022-07-23T06:37:21;11.77;;;8.90;;
8074;SDS011;4080;42.676;23.372;2022-07-23T06:39:48;13.83;;;9.43;;
8074;SDS011;4080;42.676;23.372;2022-07-23T06:42:15;11.87;;;8.30;;
8074;SDS011;4080;42.676;23.372;2022-07-23T06:44:41;14.67;;;9.53;;
8074;SDS011;4080;42.676;23.372;2022-07-23T06:47:08;10.40;;;8.43;;
8074;SDS011;4080;42.676;23.372;2022-07-23T06:49:36;15.47;;;8.83;;
8074;SDS011;4080;42.676;23.372;2022-07-23T06:52:06;14.70;;;8.47;;
8074;SDS011;4080;42.676;23.372;2022-07-23T06:54:32;14.37;;;9.37;;
8074;SDS011;4080;42.676;23.372;2022-07-23T06:56:59;10.10;;;8.97;;
8074;SDS011;4080;42.676;23.372;2022-07-23T06:59:26;10.07;;;8.60;;
8074;SDS011;4080;42.676;23.372;2022-07-23T07:01:53;17.57;;;8.73;;
8074;SDS011;4080;42.676;23.372;2022-07-23T07:04:20;18.30;;;8.77;;
8074;SDS011;4080;42.676;23.372;2022-07-23T07:06:48;12.50;;;8.83;;
8074;SDS011;4080;42.676;23.372;2022-07-23T07:09:15;10.47;;;8.53;;
8074;SDS011;4080;42.676;23.372;2022-07-23T07:11:43;11.17;;;8.17;;
8074;SDS011;4080;42.676;23.372;2022-07-23T07:14:09;12.80;;;8.67;;
8074;SDS011;4080;42.676;23.372;2022-07-23T07:16:36;9.47;;;7.87;;
8074;SDS011;4080;42.676;23.372;2022-07-23T07:19:03;11.40;;;8.27;;
8074;SDS011;4080;42.676;23.372;2022-07-23T07:21:30;13.77;;;7.33;;
8074;SDS011;4080;42.676;23.372;2022-07-23T07:23:58;10.77;;;8.20;;
8074;SDS011;4080;42.676;23.372;2022-07-23T07:26:25;13.87;;;8.10;;
8074;SDS011;4080;42.676;23.372;2022-07-23T07:28:51;10.17;;;7.67;;
8074;SDS011;4080;42.676;23.372;2022-07-23T07:31:18;11.97;;;7.97;;
8074;SDS011;4080;42.676;23.372;2022-07-23T07:33:45;13.97;;;8.00;;
8074;SDS011;4080;42.676;23.372;2022-07-23T07:36:12;12.10;;;8.63;;
8074;SDS011;4080;42.676;23.372;2022-07-23T07:38:39;13.50;;;8.00;;
8074;SDS011;4080;42.676;23.372;2022-07-23T07:41:07;12.40;;;8.47;;
8074;SDS011;4080;42.676;23.372;2022-07-23T07:43:35;12.57;;;8.73;;
8074;SDS011;4080;42.676;23.372;2022-07-23T07:46:02;17.27;;;8.73;;
8074;SDS011;4080;42.676;23.372;2022-07-23T07:48:29;12.57;;;8.93;;
8074;SDS011;4080;42.676;23.372;2022-07-23T07:50:56;11.63;;;9.00;;
8074;SDS011;4080;42.676;23.372;2022-07-23T07:53:23;18.00;;;9.53;;
8074;SDS011;4080;42.676;23.372;2022-07-23T07:55:49;13.80;;;8.97;;
8074;SDS011;4080;42.676;23.372;2022-07-23T07:58:18;18.47;;;10.07;;
8074;SDS011;4080;42.676;23.372;2022-07-23T08:00:45;21.67;;;10.23;;
8074;SDS011;4080;42.676;23.372;2022-07-23T08:03:11;18.77;;;10.40;;
8074;SDS011;4080;42.676;23.372;2022-07-23T08:05:38;15.43;;;10.57;;
8074;SDS011;4080;42.676;23.372;2022-07-23T08:08:05;16.47;;;9.77;;
8074;SDS011;4080;42.676;23.372;2022-07-23T08:10:34;14.20;;;10.23;;
8074;SDS011;4080;42.676;23.372;2022-07-23T08:13:01;13.07;;;9.23;;
8074;SDS011;4080;42.676;23.372;2022-07-23T08:15:30;15.37;;;10.43;;
8074;SDS011;4080;42.676;23.372;2022-07-23T08:17:57;13.10;;;9.73;;
8074;SDS011;4080;42.676;23.372;2022-07-23T08:20:25;16.60;;;9.70;;
8074;SDS011;4080;42.676;23.372;2022-07-23T08:22:53;14.30;;;9.68;;
8074;SDS011;4080;42.676;23.372;2022-07-23T08:25:22;16.75;;;9.07;;
8074;SDS011;4080;42.676;23.372;2022-07-23T08:27:50;14.80;;;9.32;;
8074;SDS011;4080;42.676;23.372;2022-07-23T08:30:17;16.42;;;10.20;;
8074;SDS011;4080;42.676;23.372;2022-07-23T08:32:49;14.27;;;9.63;;
8074;SDS011;4080;42.676;23.372;2022-07-23T08:35:16;16.40;;;10.20;;
8074;SDS011;4080;42.676;23.372;2022-07-23T08:37:43;17.30;;;9.57;;
8074;SDS011;4080;42.676;23.372;2022-07-23T08:40:10;16.58;;;9.77;;
8074;SDS011;4080;42.676;23.372;2022-07-23T08:42:37;12.07;;;10.10;;
8074;SDS011;4080;42.676;23.372;2022-07-23T08:45:05;17.95;;;10.18;;
8074;SDS011;4080;42.676;23.372;2022-07-23T08:47:34;13.88;;;9.77;;
8074;SDS011;4080;42.676;23.372;2022-07-23T08:50:05;15.20;;;9.50;;
8074;SDS011;4080;42.676;23.372;2022-07-23T08:52:33;17.65;;;9.23;;
8074;SDS011;4080;42.676;23.372;2022-07-23T08:55:02;15.02;;;9.73;;
8074;SDS011;4080;42.676;23.372;2022-07-23T08:57:29;12.77;;;8.73;;
8074;SDS011;4080;42.676;23.372;2022-07-23T08:59:56;16.27;;;10.20;;
8074;SDS011;4080;42.676;23.372;2022-07-23T09:02:23;12.48;;;8.68;;
8074;SDS011;4080;42.676;23.372;2022-07-23T09:04:50;12.52;;;9.23;;
8074;SDS011;4080;42.676;23.372;2022-07-23T09:07:18;12.15;;;9.13;;
8074;SDS011;4080;42.676;23.372;2022-07-23T09:09:45;12.85;;;8.57;;
8074;SDS011;4080;42.676;23.372;2022-07-23T09:12:11;15.88;;;9.38;;
8074;SDS011;4080;42.676;23.372;2022-07-23T09:14:40;16.55;;;8.82;;
8074;SDS011;4080;42.676;23.372;2022-07-23T09:17:09;12.57;;;9.07;;
8074;SDS011;4080;42.676;23.372;2022-07-23T09:19:37;18.35;;;9.20;;
8074;SDS011;4080;42.676;23.372;2022-07-23T09:22:18;11.48;;;8.43;;
8074;SDS011;4080;42.676;23.372;2022-07-23T09:25:02;16.83;;;10.02;;
8074;SDS011;4080;42.676;23.372;2022-07-23T09:27:45;11.30;;;8.95;;
8074;SDS011;4080;42.676;23.372;2022-07-23T09:30:19;11.30;;;9.27;;
8074;SDS011;4080;42.676;23.372;2022-07-23T09:35:44;14.43;;;8.70;;
8074;SDS011;4080;42.676;23.372;2022-07-23T09:38:14;11.20;;;8.73;;
8074;SDS011;4080;42.676;23.372;2022-07-23T09:40:42;9.68;;;8.43;;
8074;SDS011;4080;42.676;23.372;2022-07-23T09:43:10;18.80;;;8.90;;
8074;SDS011;4080;42.676;23.372;2022-07-23T09:45:37;12.00;;;8.77;;
8074;SDS011;4080;42.676;23.372;2022-07-23T09:48:11;14.70;;;8.60;;
8074;SDS011;4080;42.676;23.372;2022-07-23T09:50:39;9.32;;;8.30;;
8074;SDS011;4080;42.676;23.372;2022-07-23T09:53:07;12.27;;;8.32;;
8074;SDS011;4080;42.676;23.372;2022-07-23T09:55:36;13.48;;;8.48;;
8074;SDS011;4080;42.676;23.372;2022-07-23T09:58:05;15.88;;;8.85;;
8074;SDS011;4080;42.676;23.372;2022-07-23T10:00:34;12.48;;;8.50;;
8074;SDS011;4080;42.676;23.372;2022-07-23T10:03:02;12.73;;;8.25;;
8074;SDS011;4080;42.676;23.372;2022-07-23T10:05:32;12.18;;;8.73;;
8074;SDS011;4080;42.676;23.372;2022-07-23T10:08:00;12.55;;;8.18;;
8074;SDS011;4080;42.676;23.372;2022-07-23T10:10:28;11.32;;;8.20;;
8074;SDS011;4080;42.676;23.372;2022-07-23T10:12:59;12.15;;;7.85;;
8074;SDS011;4080;42.676;23.372;2022-07-23T10:15:52;13.13;;;8.40;;
8074;SDS011;4080;42.676;23.372;2022-07-23T10:18:19;9.77;;;7.65;;
8074;SDS011;4080;42.676;23.372;2022-07-23T10:20:46;11.60;;;7.68;;
8074;SDS011;4080;42.676;23.372;2022-07-23T10:23:16;11.13;;;7.53;;
8074;SDS011;4080;42.676;23.372;2022-07-23T10:25:51;11.35;;;7.30;;
8074;SDS011;4080;42.676;23.372;2022-07-23T10:28:31;12.02;;;7.63;;
8074;SDS011;4080;42.676;23.372;2022-07-23T10:31:19;12.02;;;7.55;;
8074;SDS011;4080;42.676;23.372;2022-07-23T10:33:55;14.20;;;10.93;;
8074;SDS011;4080;42.676;23.372;2022-07-23T10:36:29;13.07;;;10.15;;
8074;SDS011;4080;42.676;23.372;2022-07-23T10:39:05;19.85;;;10.75;;
8074;SDS011;4080;42.676;23.372;2022-07-23T10:41:35;18.42;;;8.10;;
8074;SDS011;4080;42.676;23.372;2022-07-23T10:44:12;11.32;;;8.43;;
8074;SDS011;4080;42.676;23.372;2022-07-23T10:46:53;11.05;;;7.47;;
8074;SDS011;4080;42.676;23.372;2022-07-23T10:49:28;8.45;;;6.97;;
8074;SDS011;4080;42.676;23.372;2022-07-23T10:54:51;11.82;;;6.43;;
8074;SDS011;4080;42.676;23.372;2022-07-23T10:57:20;10.15;;;6.90;;
8074;SDS011;4080;42.676;23.372;2022-07-23T11:02:48;9.05;;;6.85;;
8074;SDS011;4080;42.676;23.372;2022-07-23T11:05:17;10.40;;;7.47;;
8074;SDS011;4080;42.676;23.372;2022-07-23T11:10:40;12.80;;;7.97;;
8074;SDS011;4080;42.676;23.372;2022-07-23T11:13:31;15.75;;;7.20;;
8074;SDS011;4080;42.676;23.372;2022-07-23T11:16:13;13.60;;;7.35;;
8074;SDS011;4080;42.676;23.372;2022-07-23T11:19:02;14.20;;;6.90;;
8074;SDS011;4080;42.676;23.372;2022-07-23T11:24:23;14.48;;;6.80;;
8074;SDS011;4080;42.676;23.372;2022-07-23T11:27:01;18.27;;;8.32;;
8074;SDS011;4080;42.676;23.372;2022-07-23T11:29:39;12.25;;;6.57;;
8074;SDS011;4080;42.676;23.372;2022-07-23T11:32:17;13.98;;;7.57;;
8074;SDS011;4080;42.676;23.372;2022-07-23T11:34:46;21.02;;;14.70;;
8074;SDS011;4080;42.676;23.372;2022-07-23T11:37:26;14.48;;;7.22;;
8074;SDS011;4080;42.676;23.372;2022-07-23T11:39:55;16.55;;;6.88;;
8074;SDS011;4080;42.676;23.372;2022-07-23T11:42:22;12.57;;;7.25;;
8074;SDS011;4080;42.676;23.372;2022-07-23T11:44:50;16.70;;;6.50;;
8074;SDS011;4080;42.676;23.372;2022-07-23T11:47:22;16.25;;;8.15;;
8074;SDS011;4080;42.676;23.372;2022-07-23T11:49:53;20.20;;;9.55;;
8074;SDS011;4080;42.676;23.372;2022-07-23T11:52:22;13.02;;;6.78;;
8074;SDS011;4080;42.676;23.372;2022-07-23T11:54:50;13.73;;;6.65;;
8074;SDS011;4080;42.676;23.372;2022-07-23T11:57:18;18.73;;;6.60;;
8074;SDS011;4080;42.676;23.372;2022-07-23T11:59:47;12.25;;;6.60;;
8074;SDS011;4080;42.676;23.372;2022-07-23T12:02:17;15.23;;;7.10;;
8074;SDS011;4080;42.676;23.372;2022-07-23T12:04:48;14.70;;;6.72;;
8074;SDS011;4080;42.676;23.372;2022-07-23T12:07:23;16.52;;;6.75;;
8074;SDS011;4080;42.676;23.372;2022-07-23T12:09:58;14.00;;;6.38;;
8074;SDS011;4080;42.676;23.372;2022-07-23T12:12:26;15.77;;;6.45;;
8074;SDS011;4080;42.676;23.372;2022-07-23T12:14:54;13.00;;;6.32;;
8074;SDS011;4080;42.676;23.372;2022-07-23T12:17:27;18.67;;;6.25;;
8074;SDS011;4080;42.676;23.372;2022-07-23T12:19:57;11.60;;;6.10;;
8074;SDS011;4080;42.676;23.372;2022-07-23T12:22:25;19.98;;;7.07;;
8074;SDS011;4080;42.676;23.372;2022-07-23T12:24:53;13.70;;;6.38;;
8074;SDS011;4080;42.676;23.372;2022-07-23T12:27:24;14.73;;;6.80;;
8074;SDS011;4080;42.676;23.372;2022-07-23T12:29:51;16.98;;;6.35;;
8074;SDS011;4080;42.676;23.372;2022-07-23T12:32:19;15.82;;;6.93;;
8074;SDS011;4080;42.676;23.372;2022-07-23T12:34:51;15.75;;;6.72;;
8074;SDS011;4080;42.676;23.372;2022-07-23T12:37:31;16.13;;;6.68;;
8074;SDS011;4080;42.676;23.372;2022-07-23T12:42:52;10.73;;;5.93;;
8074;SDS011;4080;42.676;23.372;2022-07-23T12:45:20;15.80;;;6.68;;
8074;SDS011;4080;42.676;23.372;2022-07-23T12:48:01;14.88;;;6.80;;
8074;SDS011;4080;42.676;23.372;2022-07-23T12:50:39;15.82;;;7.00;;
8074;SDS011;4080;42.676;23.372;2022-07-23T12:53:11;13.32;;;6.63;;
8074;SDS011;4080;42.676;23.372;2022-07-23T12:55:41;13.70;;;7.53;;
8074;SDS011;4080;42.676;23.372;2022-07-23T12:58:09;14.07;;;8.15;;
8074;SDS011;4080;42.676;23.372;2022-07-23T13:00:54;20.63;;;7.68;;
8074;SDS011;4080;42.676;23.372;2022-07-23T13:03:29;18.42;;;7.47;;
8074;SDS011;4080;42.676;23.372;2022-07-23T13:06:00;13.70;;;7.50;;
8074;SDS011;4080;42.676;23.372;2022-07-23T13:08:29;19.45;;;7.70;;
8074;SDS011;4080;42.676;23.372;2022-07-23T13:10:57;23.35;;;13.20;;
8074;SDS011;4080;42.676;23.372;2022-07-23T13:13:26;16.60;;;8.68;;
8074;SDS011;4080;42.676;23.372;2022-07-23T13:15:55;12.73;;;7.13;;
8074;SDS011;4080;42.676;23.372;2022-07-23T13:18:22;23.20;;;15.25;;
8074;SDS011;4080;42.676;23.372;2022-07-23T13:20:49;21.40;;;10.18;;
8074;SDS011;4080;42.676;23.372;2022-07-23T13:23:18;16.35;;;7.32;;
8074;SDS011;4080;42.676;23.372;2022-07-23T13:25:45;15.88;;;7.32;;
8074;SDS011;4080;42.676;23.372;2022-07-23T13:28:13;16.60;;;7.40;;
8074;SDS011;4080;42.676;23.372;2022-07-23T13:30:40;13.55;;;6.60;;
8074;SDS011;4080;42.676;23.372;2022-07-23T13:33:07;13.82;;;6.78;;
8074;SDS011;4080;42.676;23.372;2022-07-23T13:35:35;17.83;;;7.30;;
8074;SDS011;4080;42.676;23.372;2022-07-23T13:38:02;14.02;;;6.65;;
8074;SDS011;4080;42.676;23.372;2022-07-23T13:40:31;18.52;;;7.07;;
8074;SDS011;4080;42.676;23.372;2022-07-23T13:42:57;17.98;;;7.47;;
8074;SDS011;4080;42.676;23.372;2022-07-23T13:45:24;16.42;;;6.85;;
8074;SDS011;4080;42.676;23.372;2022-07-23T13:47:52;14.38;;;6.38;;
8074;SDS011;4080;42.676;23.372;2022-07-23T13:50:18;17.42;;;6.78;;
8074;SDS011;4080;42.676;23.372;2022-07-23T13:52:45;21.17;;;6.95;;
8074;SDS011;4080;42.676;23.372;2022-07-23T13:55:12;15.60;;;6.25;;
8074;SDS011;4080;42.676;23.372;2022-07-23T13:57:40;15.73;;;6.95;;
8074;SDS011;4080;42.676;23.372;2022-07-23T14:00:08;18.40;;;6.63;;
8074;SDS011;4080;42.676;23.372;2022-07-23T14:02:37;13.73;;;6.53;;
8074;SDS011;4080;42.676;23.372;2022-07-23T14:05:06;13.13;;;6.43;;
8074;SDS011;4080;42.676;23.372;2022-07-23T14:07:34;11.88;;;6.40;;
8074;SDS011;4080;42.676;23.372;2022-07-23T14:10:01;12.48;;;6.13;;
8074;SDS011;4080;42.676;23.372;2022-07-23T14:12:29;12.45;;;6.40;;
8074;SDS011;4080;42.676;23.372;2022-07-23T14:14:57;13.20;;;6.63;;
8074;SDS011;4080;42.676;23.372;2022-07-23T14:17:23;12.55;;;6.50;;
8074;SDS011;4080;42.676;23.372;2022-07-23T14:19:50;13.50;;;5.75;;
8074;SDS011;4080;42.676;23.372;2022-07-23T14:22:17;16.60;;;6.03;;
8074;SDS011;4080;42.676;23.372;2022-07-23T14:24:44;11.95;;;6.40;;
8074;SDS011;4080;42.676;23.372;2022-07-23T14:27:11;18.25;;;6.72;;
8074;SDS011;4080;42.676;23.372;2022-07-23T14:29:37;15.70;;;6.20;;
8074;SDS011;4080;42.676;23.372;2022-07-23T14:32:06;12.70;;;6.20;;
8074;SDS011;4080;42.676;23.372;2022-07-23T14:34:33;18.33;;;6.60;;
8074;SDS011;4080;42.676;23.372;2022-07-23T14:37:00;13.70;;;6.35;;
8074;SDS011;4080;42.676;23.372;2022-07-23T14:39:27;17.65;;;6.57;;
8074;SDS011;4080;42.676;23.372;2022-07-23T14:41:54;12.50;;;6.20;;
8074;SDS011;4080;42.676;23.372;2022-07-23T14:44:21;11.23;;;5.97;;
8074;SDS011;4080;42.676;23.372;2022-07-23T14:46:47;14.38;;;6.38;;
8074;SDS011;4080;42.676;23.372;2022-07-23T14:49:16;18.10;;;7.20;;
8074;SDS011;4080;42.676;23.372;2022-07-23T14:51:42;21.20;;;6.82;;
8074;SDS011;4080;42.676;23.372;2022-07-23T14:54:09;14.55;;;6.47;;
8074;SDS011;4080;42.676;23.372;2022-07-23T14:56:36;11.20;;;6.65;;
8074;SDS011;4080;42.676;23.372;2022-07-23T14:59:04;17.70;;;6.40;;
8074;SDS011;4080;42.676;23.372;2022-07-23T15:01:31;11.32;;;7.05;;
8074;SDS011;4080;42.676;23.372;2022-07-23T15:03:58;13.20;;;6.43;;
8074;SDS011;4080;42.676;23.372;2022-07-23T15:06:26;16.15;;;6.40;;
8074;SDS011;4080;42.676;23.372;2022-07-23T15:08:53;12.77;;;6.45;;
8074;SDS011;4080;42.676;23.372;2022-07-23T15:11:19;12.52;;;6.47;;
8074;SDS011;4080;42.676;23.372;2022-07-23T15:13:46;11.93;;;7.40;;